• pl
  • eng

Awiacja
WIADOMOŚCI
ostatnia aktualizacja: 17.04.2020 19:04
Szanowni Państwo,

mając na uwadze sytuację związaną z pandemią wywołaną koronawirusem SARS-Cov-2 oraz w trosce o bezpieczeństwo Państwa oraz naszych pracowników, IMGW-PIB podjął decyzję o przeniesieniu kolejnej edycji Szkoły Meteorologii Lotniczej na przyszły rok. W tej chwili podanie dokładnego terminu szkoły nie jest możliwe, ale jak tylko będzie znany zostanie ogłoszony na naszych stronach internetowych, do których śledzenia serdecznie zapraszamy.

Kliknij na pogrubioną czerwoną nazwę, aby odkodować depeszę. 16:31 10.07.2020
  • WIND
  • SIGNIFICANT EURO
  • SIGNIFICANT
  • SIGMET
  • AIRMET
  • TAF FC
  • TAF FT
  • METAR GG30
  • METAR GG00


METAR EPBY 101430Z 11005KT 9999 -TSRA SCT071CB 22/19 Q1006=

METAR EPGD 101430Z 15009KT 9999 SCT009 18/16 Q1007 =

METAR EPKK 101430Z 22014KT CAVOK 30/14 Q1012 =

METAR EPKT 101430Z 20018KT CAVOK 30/14 Q1011 =

METAR EPLB 101430Z 20012KT CAVOK 29/17 Q1012 =

METAR EPLL 101430Z 16004KT 130V250 9999 FEW050CB 28/18 Q1009 =

METAR EPMO 101430Z 15008KT 120V190 9999 FEW048CB 27/17 Q1009 =

METAR EPPO 101430Z 22013KT 9999 SCT043CB 29/15 Q1006 =

METAR EPRA 101430Z NIL=

METAR EPRZ 101430Z 19016KT 160V220 CAVOK 29/16 Q1013 =

METAR EPSC 101430Z 20007KT 160V250 9999 SCT024 23/17 Q1004 =

METAR EPSY 101430Z 19006KT 130V250 CAVOK 25/16 Q1009=

METAR EPWA 101430Z 18008KT 9999 FEW056CB 28/19 Q1010 NOSIG=

METAR EPWR 101430Z 21012KT 170V230 9999 FEW050CB 31/14 Q1007 =

METAR EPZG 101430Z 21015KT 170V230 CAVOK 29/16 Q1006 =
Awiacja.imgw.pl jest pogodowym serwisem informacyjnym
Instytutu Meteorologii i Gospodarki Wodnej Państwowego Instytutu Badawczego.
Copyright IMGW PIB 2009-2019© Wszelkie prawa zastrzeżone.